sensor_id;sensor_type;location;lat;lon;timestamp;P1;durP1;ratioP1;P2;durP2;ratioP2
78169;SDS011;67412;49.892;14.490;2023-03-21T00:00:29;9.07;;;3.30;;
78169;SDS011;67412;49.892;14.490;2023-03-21T00:02:55;7.97;;;2.88;;
78169;SDS011;67412;49.892;14.490;2023-03-21T00:05:20;9.82;;;3.00;;
78169;SDS011;67412;49.892;14.490;2023-03-21T00:07:46;8.00;;;3.40;;
78169;SDS011;67412;49.892;14.490;2023-03-21T00:10:11;8.57;;;3.20;;
78169;SDS011;67412;49.892;14.490;2023-03-21T00:12:37;8.25;;;3.10;;
78169;SDS011;67412;49.892;14.490;2023-03-21T00:15:04;9.32;;;3.53;;
78169;SDS011;67412;49.892;14.490;2023-03-21T00:17:31;9.13;;;3.03;;
78169;SDS011;67412;49.892;14.490;2023-03-21T00:19:58;10.18;;;3.30;;
78169;SDS011;67412;49.892;14.490;2023-03-21T00:22:24;9.05;;;3.65;;
78169;SDS011;67412;49.892;14.490;2023-03-21T00:24:51;11.55;;;4.30;;
78169;SDS011;67412;49.892;14.490;2023-03-21T00:27:17;10.48;;;4.43;;
78169;SDS011;67412;49.892;14.490;2023-03-21T00:32:09;12.70;;;4.22;;
78169;SDS011;67412;49.892;14.490;2023-03-21T00:34:34;11.25;;;4.03;;
78169;SDS011;67412;49.892;14.490;2023-03-21T00:37:02;9.38;;;3.70;;
78169;SDS011;67412;49.892;14.490;2023-03-21T00:39:27;10.30;;;3.92;;
78169;SDS011;67412;49.892;14.490;2023-03-21T00:41:53;9.25;;;3.80;;
78169;SDS011;67412;49.892;14.490;2023-03-21T00:44:18;9.80;;;3.40;;
78169;SDS011;67412;49.892;14.490;2023-03-21T00:46:43;9.23;;;3.63;;
78169;SDS011;67412;49.892;14.490;2023-03-21T00:49:09;10.27;;;3.28;;
78169;SDS011;67412;49.892;14.490;2023-03-21T00:51:34;8.75;;;3.40;;
78169;SDS011;67412;49.892;14.490;2023-03-21T00:54:00;9.25;;;3.17;;
78169;SDS011;67412;49.892;14.490;2023-03-21T00:56:25;9.40;;;3.35;;
78169;SDS011;67412;49.892;14.490;2023-03-21T00:58:50;11.13;;;3.97;;
78169;SDS011;67412;49.892;14.490;2023-03-21T01:01:16;11.70;;;3.92;;
78169;SDS011;67412;49.892;14.490;2023-03-21T01:03:41;11.52;;;3.65;;
78169;SDS011;67412;49.892;14.490;2023-03-21T01:08:43;11.88;;;3.53;;
78169;SDS011;67412;49.892;14.490;2023-03-21T01:11:11;10.10;;;3.60;;
78169;SDS011;67412;49.892;14.490;2023-03-21T01:13:39;9.35;;;3.70;;
78169;SDS011;67412;49.892;14.490;2023-03-21T01:16:05;10.05;;;3.30;;
78169;SDS011;67412;49.892;14.490;2023-03-21T01:18:32;12.50;;;3.60;;
78169;SDS011;67412;49.892;14.490;2023-03-21T01:20:59;9.05;;;3.38;;
78169;SDS011;67412;49.892;14.490;2023-03-21T01:23:25;9.30;;;3.53;;
78169;SDS011;67412;49.892;14.490;2023-03-21T01:25:53;10.73;;;3.88;;
78169;SDS011;67412;49.892;14.490;2023-03-21T01:28:20;10.40;;;3.63;;
78169;SDS011;67412;49.892;14.490;2023-03-21T01:30:46;10.27;;;3.47;;
78169;SDS011;67412;49.892;14.490;2023-03-21T01:33:13;11.20;;;3.55;;
78169;SDS011;67412;49.892;14.490;2023-03-21T01:35:39;9.93;;;3.35;;
78169;SDS011;67412;49.892;14.490;2023-03-21T01:38:05;9.23;;;3.47;;
78169;SDS011;67412;49.892;14.490;2023-03-21T01:40:30;12.05;;;4.15;;
78169;SDS011;67412;49.892;14.490;2023-03-21T01:42:56;12.98;;;4.38;;
78169;SDS011;67412;49.892;14.490;2023-03-21T01:48:24;10.45;;;3.83;;
78169;SDS011;67412;49.892;14.490;2023-03-21T01:50:52;10.10;;;4.38;;
78169;SDS011;67412;49.892;14.490;2023-03-21T01:53:18;10.88;;;3.85;;
78169;SDS011;67412;49.892;14.490;2023-03-21T01:55:46;14.18;;;4.50;;
78169;SDS011;67412;49.892;14.490;2023-03-21T01:58:12;9.75;;;4.03;;
78169;SDS011;67412;49.892;14.490;2023-03-21T02:00:42;10.98;;;4.25;;
78169;SDS011;67412;49.892;14.490;2023-03-21T02:03:08;10.90;;;3.97;;
78169;SDS011;67412;49.892;14.490;2023-03-21T02:05:50;10.48;;;3.80;;
78169;SDS011;67412;49.892;14.490;2023-03-21T02:08:20;10.95;;;3.72;;
78169;SDS011;67412;49.892;14.490;2023-03-21T02:10:47;9.25;;;3.70;;
78169;SDS011;67412;49.892;14.490;2023-03-21T02:13:14;12.20;;;4.03;;
78169;SDS011;67412;49.892;14.490;2023-03-21T02:15:40;8.90;;;3.90;;
78169;SDS011;67412;49.892;14.490;2023-03-21T02:18:31;10.73;;;4.57;;
78169;SDS011;67412;49.892;14.490;2023-03-21T02:21:21;11.65;;;4.03;;
78169;SDS011;67412;49.892;14.490;2023-03-21T02:26:55;12.80;;;4.20;;
78169;SDS011;67412;49.892;14.490;2023-03-21T02:43:43;11.77;;;4.50;;
78169;SDS011;67412;49.892;14.490;2023-03-21T02:48:46;12.07;;;4.70;;
78169;SDS011;67412;49.892;14.490;2023-03-21T02:51:20;11.68;;;4.30;;
78169;SDS011;67412;49.892;14.490;2023-03-21T02:54:11;10.90;;;4.00;;
78169;SDS011;67412;49.892;14.490;2023-03-21T02:56:40;10.02;;;4.10;;
78169;SDS011;67412;49.892;14.490;2023-03-21T02:59:08;11.38;;;3.50;;
78169;SDS011;67412;49.892;14.490;2023-03-21T03:01:34;12.02;;;4.13;;
78169;SDS011;67412;49.892;14.490;2023-03-21T03:03:59;10.30;;;3.70;;
78169;SDS011;67412;49.892;14.490;2023-03-21T03:06:26;11.50;;;4.32;;
78169;SDS011;67412;49.892;14.490;2023-03-21T03:09:13;9.98;;;4.03;;
78169;SDS011;67412;49.892;14.490;2023-03-21T03:12:15;10.55;;;4.03;;
78169;SDS011;67412;49.892;14.490;2023-03-21T03:14:57;12.63;;;4.78;;
78169;SDS011;67412;49.892;14.490;2023-03-21T03:17:48;11.02;;;4.18;;
78169;SDS011;67412;49.892;14.490;2023-03-21T03:25:48;10.65;;;3.70;;
78169;SDS011;67412;49.892;14.490;2023-03-21T03:28:20;11.45;;;4.15;;
78169;SDS011;67412;49.892;14.490;2023-03-21T03:30:51;11.98;;;4.05;;
78169;SDS011;67412;49.892;14.490;2023-03-21T03:33:19;10.50;;;3.72;;
78169;SDS011;67412;49.892;14.490;2023-03-21T03:35:47;10.20;;;3.58;;
78169;SDS011;67412;49.892;14.490;2023-03-21T03:38:14;11.02;;;4.05;;
78169;SDS011;67412;49.892;14.490;2023-03-21T03:40:45;14.27;;;4.13;;
78169;SDS011;67412;49.892;14.490;2023-03-21T03:43:15;12.60;;;4.20;;
78169;SDS011;67412;49.892;14.490;2023-03-21T03:45:46;10.98;;;3.30;;
78169;SDS011;67412;49.892;14.490;2023-03-21T03:48:23;10.07;;;3.65;;
78169;SDS011;67412;49.892;14.490;2023-03-21T03:51:08;11.35;;;4.18;;
78169;SDS011;67412;49.892;14.490;2023-03-21T03:53:43;11.85;;;4.53;;
78169;SDS011;67412;49.892;14.490;2023-03-21T03:56:15;9.35;;;4.25;;
78169;SDS011;67412;49.892;14.490;2023-03-21T03:58:41;12.52;;;4.78;;
78169;SDS011;67412;49.892;14.490;2023-03-21T04:01:06;10.50;;;4.13;;
78169;SDS011;67412;49.892;14.490;2023-03-21T04:03:32;12.20;;;4.30;;
78169;SDS011;67412;49.892;14.490;2023-03-21T04:06:01;12.82;;;4.63;;
78169;SDS011;67412;49.892;14.490;2023-03-21T04:08:26;15.43;;;4.45;;
78169;SDS011;67412;49.892;14.490;2023-03-21T04:10:52;13.43;;;4.10;;
78169;SDS011;67412;49.892;14.490;2023-03-21T04:13:17;11.65;;;4.40;;
78169;SDS011;67412;49.892;14.490;2023-03-21T04:15:43;12.07;;;4.70;;
78169;SDS011;67412;49.892;14.490;2023-03-21T04:18:09;12.48;;;4.57;;
78169;SDS011;67412;49.892;14.490;2023-03-21T04:20:34;13.48;;;4.47;;
78169;SDS011;67412;49.892;14.490;2023-03-21T04:23:00;12.80;;;4.63;;
78169;SDS011;67412;49.892;14.490;2023-03-21T04:25:25;10.80;;;4.18;;
78169;SDS011;67412;49.892;14.490;2023-03-21T04:27:52;11.75;;;4.18;;
78169;SDS011;67412;49.892;14.490;2023-03-21T04:30:19;14.60;;;4.60;;
78169;SDS011;67412;49.892;14.490;2023-03-21T04:32:45;11.75;;;4.63;;
78169;SDS011;67412;49.892;14.490;2023-03-21T04:35:17;10.93;;;4.10;;
78169;SDS011;67412;49.892;14.490;2023-03-21T04:37:44;14.73;;;4.72;;
78169;SDS011;67412;49.892;14.490;2023-03-21T04:40:09;13.90;;;4.75;;
78169;SDS011;67412;49.892;14.490;2023-03-21T04:42:36;13.32;;;4.80;;
78169;SDS011;67412;49.892;14.490;2023-03-21T04:45:01;13.80;;;4.65;;
78169;SDS011;67412;49.892;14.490;2023-03-21T04:47:27;14.82;;;4.75;;
78169;SDS011;67412;49.892;14.490;2023-03-21T04:49:53;12.85;;;4.25;;
78169;SDS011;67412;49.892;14.490;2023-03-21T04:52:18;12.38;;;4.93;;
78169;SDS011;67412;49.892;14.490;2023-03-21T04:54:44;13.10;;;4.75;;
78169;SDS011;67412;49.892;14.490;2023-03-21T04:57:10;12.32;;;4.10;;
78169;SDS011;67412;49.892;14.490;2023-03-21T04:59:35;10.80;;;4.25;;
78169;SDS011;67412;49.892;14.490;2023-03-21T05:02:01;12.65;;;4.22;;
78169;SDS011;67412;49.892;14.490;2023-03-21T05:04:26;12.73;;;4.35;;
78169;SDS011;67412;49.892;14.490;2023-03-21T05:06:52;13.38;;;4.88;;
78169;SDS011;67412;49.892;14.490;2023-03-21T05:09:18;12.40;;;4.97;;
78169;SDS011;67412;49.892;14.490;2023-03-21T05:11:43;11.20;;;4.50;;
78169;SDS011;67412;49.892;14.490;2023-03-21T05:14:10;14.90;;;5.00;;
78169;SDS011;67412;49.892;14.490;2023-03-21T05:16:41;13.73;;;4.47;;
78169;SDS011;67412;49.892;14.490;2023-03-21T05:19:17;14.65;;;4.68;;
78169;SDS011;67412;49.892;14.490;2023-03-21T05:21:44;11.02;;;4.07;;
78169;SDS011;67412;49.892;14.490;2023-03-21T05:24:14;14.15;;;4.60;;
78169;SDS011;67412;49.892;14.490;2023-03-21T05:26:41;13.15;;;4.38;;
78169;SDS011;67412;49.892;14.490;2023-03-21T05:29:08;13.55;;;4.72;;
78169;SDS011;67412;49.892;14.490;2023-03-21T05:31:34;11.90;;;4.32;;
78169;SDS011;67412;49.892;14.490;2023-03-21T05:34:00;13.98;;;4.53;;
78169;SDS011;67412;49.892;14.490;2023-03-21T05:36:26;13.13;;;4.57;;
78169;SDS011;67412;49.892;14.490;2023-03-21T05:38:51;15.00;;;4.90;;
78169;SDS011;67412;49.892;14.490;2023-03-21T05:41:17;14.73;;;4.80;;
78169;SDS011;67412;49.892;14.490;2023-03-21T05:43:42;11.45;;;4.95;;
78169;SDS011;67412;49.892;14.490;2023-03-21T05:46:08;15.32;;;5.20;;
78169;SDS011;67412;49.892;14.490;2023-03-21T05:48:34;13.52;;;4.47;;
78169;SDS011;67412;49.892;14.490;2023-03-21T05:51:01;15.05;;;4.53;;
78169;SDS011;67412;49.892;14.490;2023-03-21T05:53:26;14.05;;;5.55;;
78169;SDS011;67412;49.892;14.490;2023-03-21T05:55:52;11.38;;;4.90;;
78169;SDS011;67412;49.892;14.490;2023-03-21T05:58:17;12.35;;;4.60;;
78169;SDS011;67412;49.892;14.490;2023-03-21T06:00:43;10.05;;;4.13;;
78169;SDS011;67412;49.892;14.490;2023-03-21T06:03:08;11.68;;;3.97;;
78169;SDS011;67412;49.892;14.490;2023-03-21T06:05:34;13.68;;;5.00;;
78169;SDS011;67412;49.892;14.490;2023-03-21T06:08:00;10.52;;;4.03;;
78169;SDS011;67412;49.892;14.490;2023-03-21T06:10:25;13.52;;;4.22;;
78169;SDS011;67412;49.892;14.490;2023-03-21T06:12:50;12.68;;;4.78;;
78169;SDS011;67412;49.892;14.490;2023-03-21T06:15:16;13.82;;;4.60;;
78169;SDS011;67412;49.892;14.490;2023-03-21T06:17:41;12.93;;;5.38;;
78169;SDS011;67412;49.892;14.490;2023-03-21T06:20:07;11.40;;;4.60;;
78169;SDS011;67412;49.892;14.490;2023-03-21T06:22:34;12.88;;;4.25;;
78169;SDS011;67412;49.892;14.490;2023-03-21T06:25:00;11.13;;;4.50;;
78169;SDS011;67412;49.892;14.490;2023-03-21T06:27:25;12.00;;;4.53;;
78169;SDS011;67412;49.892;14.490;2023-03-21T06:29:51;11.48;;;4.30;;
78169;SDS011;67412;49.892;14.490;2023-03-21T06:32:17;10.95;;;4.25;;
78169;SDS011;67412;49.892;14.490;2023-03-21T06:34:42;13.85;;;4.30;;
78169;SDS011;67412;49.892;14.490;2023-03-21T06:37:08;11.13;;;4.00;;
78169;SDS011;67412;49.892;14.490;2023-03-21T06:39:33;10.77;;;3.60;;
78169;SDS011;67412;49.892;14.490;2023-03-21T06:41:59;9.95;;;3.72;;
78169;SDS011;67412;49.892;14.490;2023-03-21T06:44:25;7.22;;;2.97;;
78169;SDS011;67412;49.892;14.490;2023-03-21T06:46:51;8.57;;;3.25;;
78169;SDS011;67412;49.892;14.490;2023-03-21T06:49:17;12.45;;;4.15;;
78169;SDS011;67412;49.892;14.490;2023-03-21T06:51:44;7.55;;;3.00;;
78169;SDS011;67412;49.892;14.490;2023-03-21T06:54:09;9.20;;;3.55;;
78169;SDS011;67412;49.892;14.490;2023-03-21T06:56:35;9.38;;;3.53;;
78169;SDS011;67412;49.892;14.490;2023-03-21T06:59:00;10.32;;;3.60;;
78169;SDS011;67412;49.892;14.490;2023-03-21T07:01:26;10.18;;;4.03;;
78169;SDS011;67412;49.892;14.490;2023-03-21T07:03:55;11.43;;;4.13;;
78169;SDS011;67412;49.892;14.490;2023-03-21T07:06:24;9.32;;;3.22;;
78169;SDS011;67412;49.892;14.490;2023-03-21T07:08:50;9.60;;;3.90;;
78169;SDS011;67412;49.892;14.490;2023-03-21T07:11:16;9.73;;;3.85;;
78169;SDS011;67412;49.892;14.490;2023-03-21T07:13:42;11.38;;;4.18;;
78169;SDS011;67412;49.892;14.490;2023-03-21T07:16:08;10.50;;;3.85;;
78169;SDS011;67412;49.892;14.490;2023-03-21T07:18:33;10.00;;;4.40;;
78169;SDS011;67412;49.892;14.490;2023-03-21T07:20:59;10.30;;;3.45;;
78169;SDS011;67412;49.892;14.490;2023-03-21T07:23:25;8.55;;;3.38;;
78169;SDS011;67412;49.892;14.490;2023-03-21T07:25:51;8.68;;;3.28;;
78169;SDS011;67412;49.892;14.490;2023-03-21T07:28:17;10.38;;;3.70;;
78169;SDS011;67412;49.892;14.490;2023-03-21T07:30:43;9.18;;;3.50;;
78169;SDS011;67412;49.892;14.490;2023-03-21T07:33:10;8.95;;;3.30;;
78169;SDS011;67412;49.892;14.490;2023-03-21T07:35:36;8.05;;;2.92;;
78169;SDS011;67412;49.892;14.490;2023-03-21T07:38:02;9.32;;;2.88;;
78169;SDS011;67412;49.892;14.490;2023-03-21T07:40:29;9.65;;;2.55;;
78169;SDS011;67412;49.892;14.490;2023-03-21T07:42:55;10.60;;;3.20;;
78169;SDS011;67412;49.892;14.490;2023-03-21T07:45:20;10.70;;;3.75;;
78169;SDS011;67412;49.892;14.490;2023-03-21T07:47:48;9.35;;;3.00;;
78169;SDS011;67412;49.892;14.490;2023-03-21T07:50:13;8.35;;;3.25;;
78169;SDS011;67412;49.892;14.490;2023-03-21T07:52:39;9.55;;;3.03;;
78169;SDS011;67412;49.892;14.490;2023-03-21T07:55:06;10.32;;;3.10;;
78169;SDS011;67412;49.892;14.490;2023-03-21T07:57:31;8.77;;;3.15;;
78169;SDS011;67412;49.892;14.490;2023-03-21T07:59:57;9.43;;;3.03;;
78169;SDS011;67412;49.892;14.490;2023-03-21T08:02:22;10.82;;;3.22;;
78169;SDS011;67412;49.892;14.490;2023-03-21T08:04:48;10.02;;;3.20;;
78169;SDS011;67412;49.892;14.490;2023-03-21T08:07:13;11.15;;;3.33;;
78169;SDS011;67412;49.892;14.490;2023-03-21T08:09:39;7.40;;;2.75;;
78169;SDS011;67412;49.892;14.490;2023-03-21T08:12:06;7.70;;;2.95;;
78169;SDS011;67412;49.892;14.490;2023-03-21T08:14:35;11.88;;;3.42;;
78169;SDS011;67412;49.892;14.490;2023-03-21T08:17:01;9.02;;;3.00;;
78169;SDS011;67412;49.892;14.490;2023-03-21T08:19:27;10.07;;;3.38;;
78169;SDS011;67412;49.892;14.490;2023-03-21T08:21:53;11.57;;;3.80;;
78169;SDS011;67412;49.892;14.490;2023-03-21T08:24:18;9.02;;;3.83;;
78169;SDS011;67412;49.892;14.490;2023-03-21T08:26:43;13.30;;;4.32;;
78169;SDS011;67412;49.892;14.490;2023-03-21T08:29:10;10.05;;;3.50;;
78169;SDS011;67412;49.892;14.490;2023-03-21T08:31:38;11.18;;;3.88;;
78169;SDS011;67412;49.892;14.490;2023-03-21T08:34:04;8.52;;;3.10;;
78169;SDS011;67412;49.892;14.490;2023-03-21T08:36:29;10.30;;;3.40;;
78169;SDS011;67412;49.892;14.490;2023-03-21T08:38:55;11.32;;;3.92;;
78169;SDS011;67412;49.892;14.490;2023-03-21T08:41:29;10.35;;;3.35;;
78169;SDS011;67412;49.892;14.490;2023-03-21T08:43:54;8.52;;;3.13;;
78169;SDS011;67412;49.892;14.490;2023-03-21T08:46:20;8.77;;;3.20;;
78169;SDS011;67412;49.892;14.490;2023-03-21T08:48:45;9.38;;;3.28;;
78169;SDS011;67412;49.892;14.490;2023-03-21T08:51:10;10.98;;;3.88;;
78169;SDS011;67412;49.892;14.490;2023-03-21T08:53:36;8.98;;;2.95;;
78169;SDS011;67412;49.892;14.490;2023-03-21T08:56:02;7.43;;;3.13;;
78169;SDS011;67412;49.892;14.490;2023-03-21T08:58:27;12.23;;;3.75;;
78169;SDS011;67412;49.892;14.490;2023-03-21T09:00:52;10.57;;;2.88;;
78169;SDS011;67412;49.892;14.490;2023-03-21T09:03:18;9.35;;;3.35;;
78169;SDS011;67412;49.892;14.490;2023-03-21T09:05:44;9.88;;;3.17;;
78169;SDS011;67412;49.892;14.490;2023-03-21T09:08:09;8.23;;;2.80;;
78169;SDS011;67412;49.892;14.490;2023-03-21T09:10:37;9.07;;;3.38;;
78169;SDS011;67412;49.892;14.490;2023-03-21T09:13:02;8.50;;;2.92;;
78169;SDS011;67412;49.892;14.490;2023-03-21T09:15:27;6.57;;;2.38;;
78169;SDS011;67412;49.892;14.490;2023-03-21T09:17:53;8.40;;;2.83;;
78169;SDS011;67412;49.892;14.490;2023-03-21T09:20:22;8.35;;;2.70;;
78169;SDS011;67412;49.892;14.490;2023-03-21T09:22:55;8.40;;;2.67;;
78169;SDS011;67412;49.892;14.490;2023-03-21T09:25:20;6.85;;;2.42;;
78169;SDS011;67412;49.892;14.490;2023-03-21T09:27:47;8.30;;;2.88;;
78169;SDS011;67412;49.892;14.490;2023-03-21T09:30:17;9.10;;;3.00;;
78169;SDS011;67412;49.892;14.490;2023-03-21T09:32:44;7.65;;;2.50;;
78169;SDS011;67412;49.892;14.490;2023-03-21T09:35:17;7.20;;;2.53;;
78169;SDS011;67412;49.892;14.490;2023-03-21T09:37:47;7.85;;;2.80;;
78169;SDS011;67412;49.892;14.490;2023-03-21T09:40:13;6.03;;;2.35;;
78169;SDS011;67412;49.892;14.490;2023-03-21T09:48:18;7.95;;;2.15;;
78169;SDS011;67412;49.892;14.490;2023-03-21T09:50:55;7.00;;;1.88;;
78169;SDS011;67412;49.892;14.490;2023-03-21T09:53:22;3.33;;;1.30;;
78169;SDS011;67412;49.892;14.490;2023-03-21T09:55:54;5.15;;;1.80;;
78169;SDS011;67412;49.892;14.490;2023-03-21T10:01:01;4.75;;;1.55;;
78169;SDS011;67412;49.892;14.490;2023-03-21T10:03:34;5.43;;;1.77;;
78169;SDS011;67412;49.892;14.490;2023-03-21T10:06:02;5.00;;;1.83;;
78169;SDS011;67412;49.892;14.490;2023-03-21T10:08:34;5.47;;;1.80;;
78169;SDS011;67412;49.892;14.490;2023-03-21T10:11:14;5.75;;;1.90;;
78169;SDS011;67412;49.892;14.490;2023-03-21T10:13:48;5.25;;;1.90;;
78169;SDS011;67412;49.892;14.490;2023-03-21T10:16:30;5.35;;;1.50;;
78169;SDS011;67412;49.892;14.490;2023-03-21T10:18:59;5.28;;;1.70;;
78169;SDS011;67412;49.892;14.490;2023-03-21T10:21:29;4.97;;;1.58;;
78169;SDS011;67412;49.892;14.490;2023-03-21T10:23:56;5.28;;;1.90;;
78169;SDS011;67412;49.892;14.490;2023-03-21T10:26:24;4.00;;;1.10;;
78169;SDS011;67412;49.892;14.490;2023-03-21T10:28:54;3.80;;;1.23;;
78169;SDS011;67412;49.892;14.490;2023-03-21T10:31:23;3.00;;;1.20;;
78169;SDS011;67412;49.892;14.490;2023-03-21T10:33:51;3.88;;;1.33;;
78169;SDS011;67412;49.892;14.490;2023-03-21T10:36:28;1.90;;;0.90;;
78169;SDS011;67412;49.892;14.490;2023-03-21T10:41:37;4.07;;;1.20;;
78169;SDS011;67412;49.892;14.490;2023-03-21T10:44:11;3.38;;;1.05;;
78169;SDS011;67412;49.892;14.490;2023-03-21T10:46:54;6.50;;;1.80;;
78169;SDS011;67412;49.892;14.490;2023-03-21T10:49:21;4.78;;;1.50;;
78169;SDS011;67412;49.892;14.490;2023-03-21T10:51:51;4.45;;;1.55;;
78169;SDS011;67412;49.892;14.490;2023-03-21T10:54:20;5.22;;;1.60;;
78169;SDS011;67412;49.892;14.490;2023-03-21T10:56:54;4.43;;;1.55;;
78169;SDS011;67412;49.892;14.490;2023-03-21T11:01:50;5.10;;;1.92;;
78169;SDS011;67412;49.892;14.490;2023-03-21T11:04:20;5.55;;;1.90;;
78169;SDS011;67412;49.892;14.490;2023-03-21T11:07:03;6.95;;;1.92;;
78169;SDS011;67412;49.892;14.490;2023-03-21T11:12:29;6.95;;;2.00;;
78169;SDS011;67412;49.892;14.490;2023-03-21T11:17:59;6.28;;;1.73;;
78169;SDS011;67412;49.892;14.490;2023-03-21T11:20:40;9.18;;;1.90;;
78169;SDS011;67412;49.892;14.490;2023-03-21T11:23:12;6.38;;;1.88;;
78169;SDS011;67412;49.892;14.490;2023-03-21T11:25:38;6.00;;;1.80;;
78169;SDS011;67412;49.892;14.490;2023-03-21T11:28:13;8.02;;;2.05;;
78169;SDS011;67412;49.892;14.490;2023-03-21T11:30:52;6.45;;;1.70;;
78169;SDS011;67412;49.892;14.490;2023-03-21T11:33:24;4.60;;;1.33;;
78169;SDS011;67412;49.892;14.490;2023-03-21T11:38:29;4.35;;;1.65;;
78169;SDS011;67412;49.892;14.490;2023-03-21T11:41:00;4.32;;;1.45;;
78169;SDS011;67412;49.892;14.490;2023-03-21T11:43:30;3.58;;;1.48;;
78169;SDS011;67412;49.892;14.490;2023-03-21T11:46:06;3.97;;;1.20;;
78169;SDS011;67412;49.892;14.490;2023-03-21T11:48:40;4.97;;;1.50;;
78169;SDS011;67412;49.892;14.490;2023-03-21T11:51:13;3.30;;;1.33;;
78169;SDS011;67412;49.892;14.490;2023-03-21T11:53:48;4.85;;;1.90;;
78169;SDS011;67412;49.892;14.490;2023-03-21T12:06:58;6.60;;;1.50;;
78169;SDS011;67412;49.892;14.490;2023-03-21T12:10:29;5.90;;;1.90;;
78169;SDS011;67412;49.892;14.490;2023-03-21T12:14:57;4.68;;;1.58;;
78169;SDS011;67412;49.892;14.490;2023-03-21T12:17:42;5.32;;;1.80;;
78169;SDS011;67412;49.892;14.490;2023-03-21T12:20:22;3.97;;;1.58;;
78169;SDS011;67412;49.892;14.490;2023-03-21T12:25:53;4.55;;;1.23;;
78169;SDS011;67412;49.892;14.490;2023-03-21T12:30:56;3.80;;;1.50;;
78169;SDS011;67412;49.892;14.490;2023-03-21T12:33:59;5.43;;;1.45;;
78169;SDS011;67412;49.892;14.490;2023-03-21T12:39:30;3.60;;;1.40;;
78169;SDS011;67412;49.892;14.490;2023-03-21T12:44:38;4.13;;;1.35;;
78169;SDS011;67412;49.892;14.490;2023-03-21T12:47:09;3.33;;;1.27;;
78169;SDS011;67412;49.892;14.490;2023-03-21T12:52:31;4.60;;;1.67;;
78169;SDS011;67412;49.892;14.490;2023-03-21T12:55:05;5.47;;;1.50;;
78169;SDS011;67412;49.892;14.490;2023-03-21T12:57:43;5.65;;;1.77;;
78169;SDS011;67412;49.892;14.490;2023-03-21T13:00:27;6.07;;;1.90;;
78169;SDS011;67412;49.892;14.490;2023-03-21T13:03:04;5.18;;;1.33;;
78169;SDS011;67412;49.892;14.490;2023-03-21T13:10:44;4.55;;;1.58;;
78169;SDS011;67412;49.892;14.490;2023-03-21T13:18:21;4.15;;;1.60;;
78169;SDS011;67412;49.892;14.490;2023-03-21T13:26:42;3.47;;;1.48;;
78169;SDS011;67412;49.892;14.490;2023-03-21T13:29:19;4.70;;;1.23;;
78169;SDS011;67412;49.892;14.490;2023-03-21T13:31:47;4.95;;;1.00;;
78169;SDS011;67412;49.892;14.490;2023-03-21T13:34:13;2.75;;;0.90;;
78169;SDS011;67412;49.892;14.490;2023-03-21T13:36:39;2.53;;;0.90;;
78169;SDS011;67412;49.892;14.490;2023-03-21T13:39:06;3.22;;;1.10;;
78169;SDS011;67412;49.892;14.490;2023-03-21T13:41:47;3.78;;;1.23;;
78169;SDS011;67412;49.892;14.490;2023-03-21T13:44:26;3.38;;;1.00;;
78169;SDS011;67412;49.892;14.490;2023-03-21T13:47:04;1.48;;;1.00;;
78169;SDS011;67412;49.892;14.490;2023-03-21T13:49:32;2.67;;;1.00;;
78169;SDS011;67412;49.892;14.490;2023-03-21T13:52:00;2.47;;;0.90;;
78169;SDS011;67412;49.892;14.490;2023-03-21T13:54:53;2.42;;;1.02;;
78169;SDS011;67412;49.892;14.490;2023-03-21T13:57:41;3.22;;;1.05;;
78169;SDS011;67412;49.892;14.490;2023-03-21T14:00:19;2.78;;;1.00;;
78169;SDS011;67412;49.892;14.490;2023-03-21T14:03:07;4.43;;;1.10;;
78169;SDS011;67412;49.892;14.490;2023-03-21T14:05:36;2.17;;;0.95;;
78169;SDS011;67412;49.892;14.490;2023-03-21T14:08:04;2.78;;;1.20;;
78169;SDS011;67412;49.892;14.490;2023-03-21T14:10:37;4.18;;;1.10;;
78169;SDS011;67412;49.892;14.490;2023-03-21T14:13:08;7.25;;;2.50;;
78169;SDS011;67412;49.892;14.490;2023-03-21T14:15:42;1.55;;;0.73;;
78169;SDS011;67412;49.892;14.490;2023-03-21T14:18:17;5.65;;;1.23;;
78169;SDS011;67412;49.892;14.490;2023-03-21T14:20:50;3.08;;;1.13;;
78169;SDS011;67412;49.892;14.490;2023-03-21T14:23:17;2.20;;;0.68;;
78169;SDS011;67412;49.892;14.490;2023-03-21T14:25:43;2.47;;;0.57;;
78169;SDS011;67412;49.892;14.490;2023-03-21T14:30:39;2.28;;;0.70;;
78169;SDS011;67412;49.892;14.490;2023-03-21T14:36:12;1.42;;;0.75;;
78169;SDS011;67412;49.892;14.490;2023-03-21T14:38:39;1.40;;;0.57;;
78169;SDS011;67412;49.892;14.490;2023-03-21T14:41:05;1.65;;;0.60;;
78169;SDS011;67412;49.892;14.490;2023-03-21T14:43:59;1.75;;;0.70;;
78169;SDS011;67412;49.892;14.490;2023-03-21T14:46:33;3.08;;;1.33;;
78169;SDS011;67412;49.892;14.490;2023-03-21T14:49:12;2.97;;;0.95;;
78169;SDS011;67412;49.892;14.490;2023-03-21T14:51:42;1.35;;;0.57;;
78169;SDS011;67412;49.892;14.490;2023-03-21T14:54:11;1.55;;;0.68;;
78169;SDS011;67412;49.892;14.490;2023-03-21T14:56:45;3.38;;;0.80;;
78169;SDS011;67412;49.892;14.490;2023-03-21T14:59:13;3.05;;;0.82;;
78169;SDS011;67412;49.892;14.490;2023-03-21T15:01:44;1.80;;;0.70;;
78169;SDS011;67412;49.892;14.490;2023-03-21T15:04:11;1.17;;;0.40;;
78169;SDS011;67412;49.892;14.490;2023-03-21T15:06:49;2.88;;;0.55;;
78169;SDS011;67412;49.892;14.490;2023-03-21T15:09:16;1.92;;;0.63;;
78169;SDS011;67412;49.892;14.490;2023-03-21T15:11:48;1.70;;;0.70;;
78169;SDS011;67412;49.892;14.490;2023-03-21T15:14:16;0.98;;;0.40;;
78169;SDS011;67412;49.892;14.490;2023-03-21T15:16:43;1.35;;;0.73;;
78169;SDS011;67412;49.892;14.490;2023-03-21T15:19:09;2.03;;;0.68;;
78169;SDS011;67412;49.892;14.490;2023-03-21T15:21:42;3.95;;;0.90;;
78169;SDS011;67412;49.892;14.490;2023-03-21T15:24:17;3.03;;;0.70;;
78169;SDS011;67412;49.892;14.490;2023-03-21T15:26:47;2.13;;;0.90;;
78169;SDS011;67412;49.892;14.490;2023-03-21T15:29:15;3.63;;;0.93;;
78169;SDS011;67412;49.892;14.490;2023-03-21T15:31:41;3.63;;;0.80;;
78169;SDS011;67412;49.892;14.490;2023-03-21T15:34:16;3.70;;;1.30;;
78169;SDS011;67412;49.892;14.490;2023-03-21T15:36:46;1.67;;;0.82;;
78169;SDS011;67412;49.892;14.490;2023-03-21T15:39:19;1.95;;;0.90;;
78169;SDS011;67412;49.892;14.490;2023-03-21T15:41:57;2.55;;;1.00;;
78169;SDS011;67412;49.892;14.490;2023-03-21T15:44:31;3.83;;;1.27;;
78169;SDS011;67412;49.892;14.490;2023-03-21T15:46:59;7.40;;;1.48;;
78169;SDS011;67412;49.892;14.490;2023-03-21T15:49:26;2.65;;;0.82;;
78169;SDS011;67412;49.892;14.490;2023-03-21T15:54:34;5.40;;;1.98;;
78169;SDS011;67412;49.892;14.490;2023-03-21T15:57:16;8.52;;;2.65;;
78169;SDS011;67412;49.892;14.490;2023-03-21T15:59:54;10.43;;;1.90;;
78169;SDS011;67412;49.892;14.490;2023-03-21T16:02:23;9.40;;;2.65;;
78169;SDS011;67412;49.892;14.490;2023-03-21T16:05:16;10.55;;;4.07;;
78169;SDS011;67412;49.892;14.490;2023-03-21T16:07:46;8.73;;;3.55;;
78169;SDS011;67412;49.892;14.490;2023-03-21T16:10:26;4.78;;;1.60;;
78169;SDS011;67412;49.892;14.490;2023-03-21T16:16:01;6.68;;;2.10;;
78169;SDS011;67412;49.892;14.490;2023-03-21T16:18:26;4.57;;;1.40;;
78169;SDS011;67412;49.892;14.490;2023-03-21T16:20:53;4.70;;;1.58;;
78169;SDS011;67412;49.892;14.490;2023-03-21T16:23:21;4.43;;;1.52;;
78169;SDS011;67412;49.892;14.490;2023-03-21T16:25:46;6.68;;;1.80;;
78169;SDS011;67412;49.892;14.490;2023-03-21T16:28:13;10.38;;;1.70;;
78169;SDS011;67412;49.892;14.490;2023-03-21T16:30:40;7.20;;;1.52;;